createdAt,value
2023-10-29T00:03:03.529Z,95815.34
2023-10-29T00:07:07.101Z,95808.16
2023-10-29T00:11:08.527Z,95803.09
2023-10-29T00:15:10.484Z,95818.47
2023-10-29T00:19:10.774Z,95816.38
2023-10-29T00:23:14.964Z,95826.97
2023-10-29T00:27:15.365Z,95838.13
2023-10-29T00:31:15.749Z,95824.31
2023-10-29T00:35:16.175Z,95827.25
2023-10-29T00:39:19.124Z,95826.47
2023-10-29T00:43:20.217Z,95836.00
2023-10-29T00:47:20.849Z,95841.34
2023-10-29T00:51:21.803Z,95841.31
2023-10-29T00:55:25.202Z,95838.94
2023-10-29T00:59:27.313Z,95813.19
2023-10-29T01:03:27.913Z,95827.53
2023-10-29T01:07:28.514Z,95820.91
2023-10-29T01:11:31.496Z,95799.41
2023-10-29T01:15:31.975Z,95805.50
2023-10-29T01:19:32.413Z,95794.91
2023-10-29T01:23:33.828Z,95785.06
2023-10-29T01:27:37.364Z,95787.72
2023-10-29T01:31:37.703Z,95800.47
2023-10-29T01:35:38.265Z,95820.09
2023-10-29T01:39:38.693Z,95820.66
2023-10-29T01:43:41.811Z,95816.41
2023-10-29T01:47:43.197Z,95820.09
2023-10-29T01:51:43.642Z,95812.13
2023-10-29T01:55:44.006Z,95820.34
2023-10-29T01:59:47.030Z,95806.75
2023-10-29T02:03:49.960Z,95799.88
2023-10-29T02:07:50.493Z,95792.47
2023-10-29T02:11:51.119Z,95798.31
2023-10-29T02:15:54.267Z,95788.25
2023-10-29T02:19:56.854Z,95789.56
2023-10-29T02:24:02.663Z,95789.84
2023-10-29T02:28:03.185Z,95783.75
2023-10-29T02:32:04.380Z,95785.59
2023-10-29T02:36:05.370Z,95782.66
2023-10-29T02:40:10.466Z,95778.13
2023-10-29T02:44:11.269Z,95762.75
2023-10-29T02:48:11.713Z,95767.53
2023-10-29T02:52:12.415Z,95767.03
2023-10-29T02:56:15.502Z,95777.38
2023-10-29T03:00:18.411Z,95786.38
2023-10-29T03:04:18.989Z,95788.75
2023-10-29T03:08:19.448Z,95789.31
2023-10-29T03:12:22.642Z,95795.41
2023-10-29T03:16:23.072Z,95778.66
2023-10-29T03:20:23.436Z,95761.97
2023-10-29T03:24:23.807Z,95800.19
2023-10-29T03:28:26.896Z,95796.22
2023-10-29T03:32:27.568Z,95798.59
2023-10-29T03:36:27.985Z,95789.56
2023-10-29T03:40:28.306Z,95785.59
2023-10-29T03:44:31.495Z,95788.75
2023-10-29T03:48:32.435Z,95772.56
2023-10-29T03:52:32.891Z,95775.25
2023-10-29T03:56:33.216Z,95780.81
2023-10-29T04:00:36.542Z,95780.28
2023-10-29T04:04:37.202Z,95750.56
2023-10-29T04:08:37.794Z,95778.16
2023-10-29T04:12:38.344Z,95771.81
2023-10-29T04:16:42.001Z,95766.97
2023-10-29T04:20:42.458Z,95766.94
2023-10-29T04:24:42.955Z,95766.41
2023-10-29T04:28:43.363Z,95774.38
2023-10-29T04:32:46.326Z,95764.28
2023-10-29T04:36:49.754Z,95752.59
2023-10-29T04:40:50.251Z,95747.78
2023-10-29T04:44:50.804Z,95746.22
2023-10-29T04:48:54.197Z,95741.41
2023-10-29T04:52:54.600Z,95737.94
2023-10-29T04:56:54.987Z,95705.31
2023-10-29T05:00:55.725Z,95713.75
2023-10-29T05:04:58.647Z,95722.28
2023-10-29T05:08:59.568Z,95722.75
2023-10-29T05:13:01.215Z,95720.91
2023-10-29T05:17:01.896Z,95716.41
2023-10-29T05:21:04.951Z,95723.28
2023-10-29T05:25:06.344Z,95714.84
2023-10-29T05:29:07.039Z,95721.16
2023-10-29T05:33:07.885Z,95703.63
2023-10-29T05:37:10.997Z,95708.44
2023-10-29T05:41:11.327Z,95697.31
2023-10-29T05:45:13.278Z,95706.28
2023-10-29T05:49:13.681Z,95718.50
2023-10-29T05:53:16.807Z,95701.97
2023-10-29T05:57:17.589Z,95724.81
2023-10-29T06:01:18.225Z,95724.06
2023-10-29T06:05:18.692Z,95721.09
2023-10-29T06:09:24.508Z,95711.56
2023-10-29T06:13:25.097Z,95727.22
2023-10-29T06:17:27.485Z,95700.97
2023-10-29T06:21:28.751Z,95706.81
2023-10-29T06:25:32.361Z,95738.72
2023-10-29T06:29:33.033Z,95725.22
2023-10-29T06:33:41.422Z,95683.28
2023-10-29T06:37:43.337Z,95723.38
2023-10-29T06:41:49.338Z,95723.44
2023-10-29T06:45:49.729Z,95736.47
2023-10-29T06:49:52.148Z,95709.41
2023-10-29T06:53:55.089Z,95719.22
2023-10-29T06:57:58.072Z,95745.78
2023-10-29T07:02:00.220Z,95743.38
2023-10-29T07:06:09.905Z,95745.78
2023-10-29T07:10:12.282Z,95755.31
2023-10-29T07:14:16.937Z,95768.84
2023-10-29T07:18:17.449Z,95763.03
2023-10-29T07:22:18.208Z,95751.59
2023-10-29T07:26:18.628Z,95723.72
2023-10-29T07:30:21.757Z,95742.56
2023-10-29T07:34:22.171Z,95712.59
2023-10-29T07:38:22.758Z,95735.66
2023-10-29T07:42:23.343Z,95738.81
2023-10-29T07:46:26.781Z,95752.09
2023-10-29T07:50:27.610Z,95745.53
2023-10-29T07:54:28.911Z,95738.44
2023-10-29T07:58:29.816Z,95748.66
2023-10-29T08:02:34.330Z,95734.19
2023-10-29T08:06:34.981Z,95723.34
2023-10-29T08:10:36.611Z,95720.94
2023-10-29T08:14:37.110Z,95758.44
2023-10-29T08:18:40.359Z,95755.81
2023-10-29T08:22:42.203Z,95764.06
2023-10-29T08:26:43.819Z,95789.84
2023-10-29T08:30:44.219Z,95808.91
2023-10-29T08:34:47.454Z,95789.31
2023-10-29T08:38:48.103Z,95844.34
2023-10-29T08:42:48.617Z,95819.56
2023-10-29T08:46:49.777Z,95822.53
2023-10-29T08:50:53.609Z,95837.47
2023-10-29T08:54:54.726Z,95792.72
2023-10-29T08:58:55.217Z,95813.16
2023-10-29T09:02:56.773Z,95821.53
2023-10-29T09:07:01.746Z,95787.28
2023-10-29T09:11:03.197Z,95840.28
2023-10-29T09:15:03.689Z,95808.13
2023-10-29T09:19:04.270Z,95787.00
2023-10-29T09:23:07.378Z,95775.25
2023-10-29T09:27:08.111Z,95793.22
2023-10-29T09:31:09.915Z,95786.91
2023-10-29T09:35:11.527Z,95762.88
2023-10-29T09:39:15.232Z,95763.00
2023-10-29T09:43:19.876Z,95743.06
2023-10-29T09:47:22.948Z,95764.94
2023-10-29T09:51:24.404Z,95777.84
2023-10-29T09:55:27.494Z,95788.28
2023-10-29T09:59:27.902Z,95789.69
2023-10-29T10:03:31.228Z,95769.91
2023-10-29T10:07:33.055Z,95779.63
2023-10-29T10:11:36.086Z,95783.00
2023-10-29T10:15:37.408Z,95768.75
2023-10-29T10:19:37.929Z,95767.44
2023-10-29T10:23:50.970Z,95761.16
2023-10-29T10:27:58.719Z,95757.09
2023-10-29T10:32:05.832Z,95758.06
2023-10-29T10:36:07.629Z,95761.31
2023-10-29T10:40:27.876Z,95764.41
2023-10-29T10:44:32.757Z,95770.63
2023-10-29T10:48:36.778Z,95755.09
2023-10-29T10:52:38.249Z,95750.38
2023-10-29T10:56:41.068Z,95746.63
2023-10-29T11:00:44.675Z,95760.47
2023-10-29T11:04:48.769Z,95760.19
2023-10-29T11:08:50.474Z,95758.53
2023-10-29T11:12:51.571Z,95755.84
2023-10-29T11:16:57.257Z,95758.16
2023-10-29T11:21:05.316Z,95768.69
2023-10-29T11:25:43.039Z,95781.88
2023-10-29T11:29:48.080Z,95786.34
2023-10-29T11:34:13.025Z,95790.44
2023-10-29T11:38:35.752Z,95779.75
2023-10-29T11:42:36.428Z,95766.00
2023-10-29T11:47:11.447Z,95768.31
2023-10-29T11:51:27.757Z,95776.97
2023-10-29T11:55:31.883Z,95784.06
2023-10-29T11:59:32.517Z,95747.69
2023-10-29T12:03:33.880Z,95750.94
2023-10-29T12:07:37.083Z,95695.91
2023-10-29T12:11:37.379Z,95727.31
2023-10-29T12:15:37.886Z,95745.41
2023-10-29T12:19:39.479Z,95728.56
2023-10-29T12:23:43.035Z,95752.31
2023-10-29T12:27:45.464Z,95770.00
2023-10-29T12:31:51.441Z,95763.06
2023-10-29T12:35:53.970Z,95753.94
2023-10-29T12:39:58.269Z,95762.75
2023-10-29T12:43:59.113Z,95771.31
2023-10-29T12:48:13.529Z,95744.56
2023-10-29T12:52:17.053Z,95717.34
2023-10-29T12:56:20.697Z,95735.38
2023-10-29T13:00:22.114Z,95728.94
2023-10-29T13:04:23.793Z,95723.66
2023-10-29T13:08:25.302Z,95707.50
2023-10-29T13:12:29.307Z,95714.16
2023-10-29T13:16:29.775Z,95691.75
2023-10-29T13:20:32.129Z,95682.31
2023-10-29T13:24:33.867Z,95665.84
2023-10-29T13:28:37.352Z,95674.75
2023-10-29T13:32:38.218Z,95646.91
2023-10-29T13:36:38.740Z,95661.81
2023-10-29T13:40:42.468Z,95667.97
2023-10-29T13:44:45.610Z,95671.09
2023-10-29T13:48:47.342Z,95652.91
2023-10-29T13:52:47.776Z,95640.28
2023-10-29T13:56:48.152Z,95640.59
2023-10-29T14:00:51.363Z,95616.25
2023-10-29T14:04:51.826Z,95644.06
2023-10-29T14:08:52.876Z,95646.19
2023-10-29T14:12:53.412Z,95631.66
2023-10-29T14:16:56.401Z,95635.72
2023-10-29T14:20:57.170Z,95655.25
2023-10-29T14:24:57.686Z,95625.34
2023-10-29T14:28:59.103Z,95645.66
2023-10-29T14:33:02.221Z,95646.66
2023-10-29T14:37:03.063Z,95643.47
2023-10-29T14:41:03.942Z,95639.63
2023-10-29T14:45:04.769Z,95623.31
2023-10-29T14:49:08.156Z,95609.84
2023-10-29T14:53:09.614Z,95641.78
2023-10-29T14:57:26.068Z,95615.91
2023-10-29T15:01:29.750Z,95616.53
2023-10-29T15:05:35.569Z,95615.56
2023-10-29T15:09:36.280Z,95623.88
2023-10-29T15:13:45.781Z,95635.25
2023-10-29T15:17:47.527Z,95639.31
2023-10-29T15:21:50.676Z,95636.09
2023-10-29T15:25:51.241Z,95642.91
2023-10-29T15:29:55.085Z,95653.00
2023-10-29T15:33:56.078Z,95615.81
2023-10-29T15:37:59.171Z,95561.50
2023-10-29T15:42:00.617Z,95571.09
2023-10-29T15:46:01.340Z,95557.81
2023-10-29T15:50:04.529Z,95548.06
2023-10-29T15:54:08.328Z,95568.00
2023-10-29T15:58:08.762Z,95552.25
2023-10-29T16:02:09.788Z,95554.53
2023-10-29T16:06:11.343Z,95541.88
2023-10-29T16:10:14.952Z,95553.38
2023-10-29T16:14:15.522Z,95563.06
2023-10-29T16:18:16.034Z,95527.06
2023-10-29T16:22:17.773Z,95574.56
2023-10-29T16:26:20.925Z,95588.38
2023-10-29T16:30:26.802Z,95588.97
2023-10-29T16:34:28.136Z,95596.56
2023-10-29T16:38:30.442Z,95596.88
2023-10-29T16:42:33.449Z,95599.03
2023-10-29T16:46:33.833Z,95628.34
2023-10-29T16:50:34.118Z,95639.63
2023-10-29T16:54:34.884Z,95617.44
2023-10-29T16:58:40.377Z,95654.97
2023-10-29T17:02:40.951Z,95658.44
2023-10-29T17:06:41.916Z,95663.78
2023-10-29T17:10:42.796Z,95657.75
2023-10-29T17:14:47.182Z,95662.97
2023-10-29T17:18:47.852Z,95649.91
2023-10-29T17:22:48.277Z,95655.91
2023-10-29T17:26:49.434Z,95653.31
2023-10-29T17:30:52.809Z,95635.88
2023-10-29T17:34:54.309Z,95653.84
2023-10-29T17:38:54.782Z,95625.94
2023-10-29T17:42:56.432Z,95648.44
2023-10-29T17:47:00.530Z,95660.00
2023-10-29T17:51:01.447Z,95608.59
2023-10-29T17:55:02.702Z,95663.75
2023-10-29T17:59:05.015Z,95686.09
2023-10-29T18:03:08.172Z,95677.00
2023-10-29T18:07:08.649Z,95702.53
2023-10-29T18:11:09.317Z,95695.53
2023-10-29T18:15:11.110Z,95729.50
2023-10-29T18:19:14.290Z,95721.31
2023-10-29T18:23:14.631Z,95736.41
2023-10-29T18:27:15.249Z,95742.56
2023-10-29T18:31:16.474Z,95746.69
2023-10-29T18:35:19.649Z,95732.50
2023-10-29T18:39:20.333Z,95731.31
2023-10-29T18:43:22.160Z,95722.91
2023-10-29T18:47:25.045Z,95745.53
2023-10-29T18:51:28.137Z,95758.44
2023-10-29T18:55:28.715Z,95721.78
2023-10-29T18:59:29.340Z,95723.44
2023-10-29T19:03:29.870Z,95752.53
2023-10-29T19:07:34.554Z,95751.94
2023-10-29T19:11:36.779Z,95773.16
2023-10-29T19:15:38.337Z,95781.81
2023-10-29T19:19:39.474Z,95778.94
2023-10-29T19:23:43.675Z,95802.19
2023-10-29T19:27:44.901Z,95790.44
2023-10-29T19:31:45.615Z,95829.84
2023-10-29T19:35:46.284Z,95877.38
2023-10-29T19:39:49.491Z,95883.78
2023-10-29T19:43:49.927Z,95872.44
2023-10-29T19:47:51.289Z,95886.84
2023-10-29T19:51:52.268Z,95885.13
2023-10-29T19:55:55.406Z,95888.28
2023-10-29T19:59:55.872Z,95914.06
2023-10-29T20:03:59.182Z,95940.06
2023-10-29T20:08:00.244Z,95936.81
2023-10-29T20:12:03.907Z,95954.06
2023-10-29T20:16:05.348Z,95962.72
2023-10-29T20:20:06.195Z,95961.91
2023-10-29T20:24:09.786Z,95957.38
2023-10-29T20:28:13.954Z,95950.06
2023-10-29T20:32:15.342Z,95956.38
2023-10-29T20:36:19.139Z,95925.22
2023-10-29T20:40:21.069Z,95928.00
2023-10-29T20:44:24.292Z,95926.09
2023-10-29T20:48:25.519Z,95925.28
2023-10-29T20:52:26.651Z,95935.88
2023-10-29T20:56:28.936Z,95905.97
2023-10-29T21:00:33.491Z,95907.47
2023-10-29T21:04:34.827Z,95943.41
2023-10-29T21:08:36.119Z,95923.69
2023-10-29T21:12:38.233Z,95964.84
2023-10-29T21:16:42.048Z,95971.16
2023-10-29T21:20:43.359Z,95999.31
2023-10-29T21:24:44.761Z,96008.47
2023-10-29T21:28:45.801Z,96026.78
2023-10-29T21:32:49.687Z,95996.50
2023-10-29T21:36:50.821Z,96005.00
2023-10-29T21:40:51.986Z,95960.16
2023-10-29T21:44:53.762Z,95988.59
2023-10-29T21:48:57.738Z,95967.69
2023-10-29T21:52:59.000Z,95963.25
2023-10-29T21:57:00.353Z,95942.53
2023-10-29T22:01:02.244Z,95984.19
2023-10-29T22:05:06.189Z,95979.38
2023-10-29T22:09:10.132Z,95997.78
2023-10-29T22:13:12.135Z,95988.69
2023-10-29T22:17:15.246Z,95998.31
2023-10-29T22:21:18.473Z,96023.09
2023-10-29T22:25:19.283Z,96005.25
2023-10-29T22:29:19.734Z,96010.50
2023-10-29T22:33:23.793Z,96000.97
2023-10-29T22:37:26.940Z,95994.28
2023-10-29T22:41:27.411Z,96006.63
2023-10-29T22:45:31.272Z,96004.19
2023-10-29T22:49:32.065Z,96001.28
2023-10-29T22:53:35.824Z,96013.75
2023-10-29T22:57:36.379Z,96011.13
2023-10-29T23:01:36.795Z,95990.13
2023-10-29T23:05:38.059Z,96001.28
2023-10-29T23:09:41.286Z,96005.78
2023-10-29T23:13:42.413Z,95977.94
2023-10-29T23:17:42.863Z,95990.63
2023-10-29T23:21:43.169Z,95990.34
2023-10-29T23:25:47.428Z,96010.63
2023-10-29T23:29:48.031Z,96008.78
2023-10-29T23:33:49.831Z,96004.28
2023-10-29T23:37:50.727Z,96005.84
2023-10-29T23:41:53.667Z,96011.75
2023-10-29T23:45:54.277Z,96002.13
2023-10-29T23:49:55.303Z,95995.69
2023-10-29T23:53:55.713Z,96003.69
2023-10-29T23:57:58.697Z,96001.50
